sensor_id;sensor_type;location;lat;lon;timestamp;temperature;humidity
4354;DHT22;11018;51.258;6.806;2023-10-31T00:01:21;12.50;70.20
4354;DHT22;11018;51.258;6.806;2023-10-31T00:03:47;12.50;71.60
4354;DHT22;11018;51.258;6.806;2023-10-31T00:06:13;12.50;73.10
4354;DHT22;11018;51.258;6.806;2023-10-31T00:08:38;12.40;73.70
4354;DHT22;11018;51.258;6.806;2023-10-31T00:11:04;12.50;73.80
4354;DHT22;11018;51.258;6.806;2023-10-31T00:13:30;12.40;73.70
4354;DHT22;11018;51.258;6.806;2023-10-31T00:15:55;12.40;74.50
4354;DHT22;11018;51.258;6.806;2023-10-31T00:18:21;12.50;74.20
4354;DHT22;11018;51.258;6.806;2023-10-31T00:20:47;12.40;74.80
4354;DHT22;11018;51.258;6.806;2023-10-31T00:23:13;12.40;74.80
4354;DHT22;11018;51.258;6.806;2023-10-31T00:25:39;12.40;74.30
4354;DHT22;11018;51.258;6.806;2023-10-31T00:28:04;12.40;72.70
4354;DHT22;11018;51.258;6.806;2023-10-31T00:30:30;12.40;72.00
4354;DHT22;11018;51.258;6.806;2023-10-31T00:32:55;12.40;71.40
4354;DHT22;11018;51.258;6.806;2023-10-31T00:35:21;12.40;68.90
4354;DHT22;11018;51.258;6.806;2023-10-31T00:37:46;12.30;68.80
4354;DHT22;11018;51.258;6.806;2023-10-31T00:40:12;12.30;69.30
4354;DHT22;11018;51.258;6.806;2023-10-31T00:42:39;12.20;68.80
4354;DHT22;11018;51.258;6.806;2023-10-31T00:45:06;12.20;66.80
4354;DHT22;11018;51.258;6.806;2023-10-31T00:47:32;12.20;65.50
4354;DHT22;11018;51.258;6.806;2023-10-31T00:49:58;12.20;65.20
4354;DHT22;11018;51.258;6.806;2023-10-31T00:52:24;12.20;67.00
4354;DHT22;11018;51.258;6.806;2023-10-31T00:54:49;12.10;68.00
4354;DHT22;11018;51.258;6.806;2023-10-31T00:57:15;12.10;69.10
4354;DHT22;11018;51.258;6.806;2023-10-31T00:59:40;12.00;70.20
4354;DHT22;11018;51.258;6.806;2023-10-31T01:02:06;12.10;72.00
4354;DHT22;11018;51.258;6.806;2023-10-31T01:04:32;12.10;71.80
4354;DHT22;11018;51.258;6.806;2023-10-31T01:06:57;12.20;66.80
4354;DHT22;11018;51.258;6.806;2023-10-31T01:09:23;12.10;66.60
4354;DHT22;11018;51.258;6.806;2023-10-31T01:11:49;12.10;63.50
4354;DHT22;11018;51.258;6.806;2023-10-31T01:14:14;12.10;64.50
4354;DHT22;11018;51.258;6.806;2023-10-31T01:16:40;12.10;65.30
4354;DHT22;11018;51.258;6.806;2023-10-31T01:19:06;12.00;66.00
4354;DHT22;11018;51.258;6.806;2023-10-31T01:21:31;12.10;65.80
4354;DHT22;11018;51.258;6.806;2023-10-31T01:23:58;12.00;64.40
4354;DHT22;11018;51.258;6.806;2023-10-31T01:26:24;12.00;64.40
4354;DHT22;11018;51.258;6.806;2023-10-31T01:28:50;11.90;66.90
4354;DHT22;11018;51.258;6.806;2023-10-31T01:31:15;11.90;67.00
4354;DHT22;11018;51.258;6.806;2023-10-31T01:33:41;11.90;68.10
4354;DHT22;11018;51.258;6.806;2023-10-31T01:36:07;11.90;69.40
4354;DHT22;11018;51.258;6.806;2023-10-31T01:38:32;11.90;70.20
4354;DHT22;11018;51.258;6.806;2023-10-31T01:40:58;11.80;70.60
4354;DHT22;11018;51.258;6.806;2023-10-31T01:43:37;11.90;69.30
4354;DHT22;11018;51.258;6.806;2023-10-31T01:46:03;11.90;70.90
4354;DHT22;11018;51.258;6.806;2023-10-31T01:48:32;11.90;70.20
4354;DHT22;11018;51.258;6.806;2023-10-31T01:50:59;11.90;71.20
4354;DHT22;11018;51.258;6.806;2023-10-31T01:53:26;11.80;72.80
4354;DHT22;11018;51.258;6.806;2023-10-31T01:55:54;11.80;74.00
4354;DHT22;11018;51.258;6.806;2023-10-31T01:58:25;11.80;72.50
4354;DHT22;11018;51.258;6.806;2023-10-31T02:00:55;11.80;74.80
4354;DHT22;11018;51.258;6.806;2023-10-31T02:03:21;11.80;74.30
4354;DHT22;11018;51.258;6.806;2023-10-31T02:05:47;11.80;74.60
4354;DHT22;11018;51.258;6.806;2023-10-31T02:08:12;11.80;75.50
4354;DHT22;11018;51.258;6.806;2023-10-31T02:10:38;11.90;74.30
4354;DHT22;11018;51.258;6.806;2023-10-31T02:13:17;11.90;75.80
4354;DHT22;11018;51.258;6.806;2023-10-31T02:15:44;11.90;74.60
4354;DHT22;11018;51.258;6.806;2023-10-31T02:18:10;12.00;75.50
4354;DHT22;11018;51.258;6.806;2023-10-31T02:20:36;12.00;71.90
4354;DHT22;11018;51.258;6.806;2023-10-31T02:23:02;12.10;69.40
4354;DHT22;11018;51.258;6.806;2023-10-31T02:25:28;12.10;70.60
4354;DHT22;11018;51.258;6.806;2023-10-31T02:27:53;12.10;70.70
4354;DHT22;11018;51.258;6.806;2023-10-31T02:30:19;12.00;71.80
4354;DHT22;11018;51.258;6.806;2023-10-31T02:32:45;12.10;71.60
4354;DHT22;11018;51.258;6.806;2023-10-31T02:35:10;12.00;70.80
4354;DHT22;11018;51.258;6.806;2023-10-31T02:37:37;12.10;70.30
4354;DHT22;11018;51.258;6.806;2023-10-31T02:40:02;12.00;72.40
4354;DHT22;11018;51.258;6.806;2023-10-31T02:42:28;12.00;73.10
4354;DHT22;11018;51.258;6.806;2023-10-31T02:44:54;12.10;72.90
4354;DHT22;11018;51.258;6.806;2023-10-31T02:47:19;12.00;72.20
4354;DHT22;11018;51.258;6.806;2023-10-31T02:49:45;12.00;73.40
4354;DHT22;11018;51.258;6.806;2023-10-31T02:52:11;12.00;73.80
4354;DHT22;11018;51.258;6.806;2023-10-31T02:54:36;12.00;76.10
4354;DHT22;11018;51.258;6.806;2023-10-31T02:57:02;12.00;76.60
4354;DHT22;11018;51.258;6.806;2023-10-31T02:59:28;12.00;76.50
4354;DHT22;11018;51.258;6.806;2023-10-31T03:01:56;11.90;76.20
4354;DHT22;11018;51.258;6.806;2023-10-31T03:04:22;11.90;77.10
4354;DHT22;11018;51.258;6.806;2023-10-31T03:06:48;11.90;76.70
4354;DHT22;11018;51.258;6.806;2023-10-31T03:09:13;11.90;76.20
4354;DHT22;11018;51.258;6.806;2023-10-31T03:11:39;11.90;76.00
4354;DHT22;11018;51.258;6.806;2023-10-31T03:14:04;11.90;76.70
4354;DHT22;11018;51.258;6.806;2023-10-31T03:16:30;11.80;78.90
4354;DHT22;11018;51.258;6.806;2023-10-31T03:18:55;11.90;74.80
4354;DHT22;11018;51.258;6.806;2023-10-31T03:21:21;11.90;75.80
4354;DHT22;11018;51.258;6.806;2023-10-31T03:23:48;11.90;75.70
4354;DHT22;11018;51.258;6.806;2023-10-31T03:26:15;12.00;75.00
4354;DHT22;11018;51.258;6.806;2023-10-31T03:28:40;11.90;75.90
4354;DHT22;11018;51.258;6.806;2023-10-31T03:31:06;12.00;74.00
4354;DHT22;11018;51.258;6.806;2023-10-31T03:33:31;12.00;74.30
4354;DHT22;11018;51.258;6.806;2023-10-31T03:35:57;11.90;76.10
4354;DHT22;11018;51.258;6.806;2023-10-31T03:38:23;11.90;74.60
4354;DHT22;11018;51.258;6.806;2023-10-31T03:40:48;12.00;74.30
4354;DHT22;11018;51.258;6.806;2023-10-31T03:43:14;12.00;73.30
4354;DHT22;11018;51.258;6.806;2023-10-31T03:45:40;12.00;72.80
4354;DHT22;11018;51.258;6.806;2023-10-31T03:48:06;11.90;74.00
4354;DHT22;11018;51.258;6.806;2023-10-31T03:50:31;11.90;74.40
4354;DHT22;11018;51.258;6.806;2023-10-31T03:52:57;12.00;74.60
4354;DHT22;11018;51.258;6.806;2023-10-31T03:55:22;12.00;75.50
4354;DHT22;11018;51.258;6.806;2023-10-31T03:57:48;12.00;73.00
4354;DHT22;11018;51.258;6.806;2023-10-31T04:00:14;12.00;73.50
4354;DHT22;11018;51.258;6.806;2023-10-31T04:02:40;12.10;73.00
4354;DHT22;11018;51.258;6.806;2023-10-31T04:05:06;12.10;73.80
4354;DHT22;11018;51.258;6.806;2023-10-31T04:07:32;12.10;72.80
4354;DHT22;11018;51.258;6.806;2023-10-31T04:09:58;12.10;71.50
4354;DHT22;11018;51.258;6.806;2023-10-31T04:12:23;12.00;73.40
4354;DHT22;11018;51.258;6.806;2023-10-31T04:14:49;12.00;71.60
4354;DHT22;11018;51.258;6.806;2023-10-31T04:17:14;12.10;72.50
4354;DHT22;11018;51.258;6.806;2023-10-31T04:19:40;12.10;72.00
4354;DHT22;11018;51.258;6.806;2023-10-31T04:22:05;12.00;73.10
4354;DHT22;11018;51.258;6.806;2023-10-31T04:24:31;12.00;72.50
4354;DHT22;11018;51.258;6.806;2023-10-31T04:26:57;12.10;73.40
4354;DHT22;11018;51.258;6.806;2023-10-31T04:29:22;12.00;74.00
4354;DHT22;11018;51.258;6.806;2023-10-31T04:31:48;12.10;74.00
4354;DHT22;11018;51.258;6.806;2023-10-31T04:34:14;12.00;75.60
4354;DHT22;11018;51.258;6.806;2023-10-31T04:36:39;11.90;76.40
4354;DHT22;11018;51.258;6.806;2023-10-31T04:39:05;11.90;75.50
4354;DHT22;11018;51.258;6.806;2023-10-31T04:41:31;12.00;75.00
4354;DHT22;11018;51.258;6.806;2023-10-31T04:43:56;11.90;76.30
4354;DHT22;11018;51.258;6.806;2023-10-31T04:46:22;12.00;74.80
4354;DHT22;11018;51.258;6.806;2023-10-31T04:48:48;12.00;72.80
4354;DHT22;11018;51.258;6.806;2023-10-31T04:51:14;12.10;72.00
4354;DHT22;11018;51.258;6.806;2023-10-31T04:53:39;12.00;73.40
4354;DHT22;11018;51.258;6.806;2023-10-31T04:56:11;12.00;74.70
4354;DHT22;11018;51.258;6.806;2023-10-31T04:58:37;11.90;77.30
4354;DHT22;11018;51.258;6.806;2023-10-31T05:01:02;11.80;77.50
4354;DHT22;11018;51.258;6.806;2023-10-31T05:03:28;11.90;77.80
4354;DHT22;11018;51.258;6.806;2023-10-31T05:05:54;11.80;77.70
4354;DHT22;11018;51.258;6.806;2023-10-31T05:08:19;11.90;78.20
4354;DHT22;11018;51.258;6.806;2023-10-31T05:10:45;11.80;80.00
4354;DHT22;11018;51.258;6.806;2023-10-31T05:13:12;11.80;80.20
4354;DHT22;11018;51.258;6.806;2023-10-31T05:15:38;11.90;78.20
4354;DHT22;11018;51.258;6.806;2023-10-31T05:18:03;11.90;77.20
4354;DHT22;11018;51.258;6.806;2023-10-31T05:20:29;11.90;77.30
4354;DHT22;11018;51.258;6.806;2023-10-31T05:22:55;11.90;78.50
4354;DHT22;11018;51.258;6.806;2023-10-31T05:25:20;11.90;80.50
4354;DHT22;11018;51.258;6.806;2023-10-31T05:27:46;11.80;82.20
4354;DHT22;11018;51.258;6.806;2023-10-31T05:30:13;11.80;81.70
4354;DHT22;11018;51.258;6.806;2023-10-31T05:32:39;11.70;83.90
4354;DHT22;11018;51.258;6.806;2023-10-31T05:35:05;11.70;87.00
4354;DHT22;11018;51.258;6.806;2023-10-31T05:37:31;11.60;89.30
4354;DHT22;11018;51.258;6.806;2023-10-31T05:39:56;11.60;88.50
4354;DHT22;11018;51.258;6.806;2023-10-31T05:42:22;11.50;90.50
4354;DHT22;11018;51.258;6.806;2023-10-31T05:44:48;11.50;92.40
4354;DHT22;11018;51.258;6.806;2023-10-31T05:47:14;11.50;90.00
4354;DHT22;11018;51.258;6.806;2023-10-31T05:49:43;11.40;91.30
4354;DHT22;11018;51.258;6.806;2023-10-31T05:52:08;11.40;92.30
4354;DHT22;11018;51.258;6.806;2023-10-31T05:54:34;11.50;93.30
4354;DHT22;11018;51.258;6.806;2023-10-31T05:56:59;11.40;94.20
4354;DHT22;11018;51.258;6.806;2023-10-31T05:59:25;11.30;94.40
4354;DHT22;11018;51.258;6.806;2023-10-31T06:01:50;11.40;93.30
4354;DHT22;11018;51.258;6.806;2023-10-31T06:04:16;11.40;93.70
4354;DHT22;11018;51.258;6.806;2023-10-31T06:06:42;11.30;92.90
4354;DHT22;11018;51.258;6.806;2023-10-31T06:09:07;11.20;93.60
4354;DHT22;11018;51.258;6.806;2023-10-31T06:11:35;11.20;95.10
4354;DHT22;11018;51.258;6.806;2023-10-31T06:14:01;11.20;95.00
4354;DHT22;11018;51.258;6.806;2023-10-31T06:16:26;11.10;97.20
4354;DHT22;11018;51.258;6.806;2023-10-31T06:18:52;11.10;97.10
4354;DHT22;11018;51.258;6.806;2023-10-31T06:21:18;11.20;96.30
4354;DHT22;11018;51.258;6.806;2023-10-31T06:23:43;11.20;94.70
4354;DHT22;11018;51.258;6.806;2023-10-31T06:26:11;11.20;95.20
4354;DHT22;11018;51.258;6.806;2023-10-31T06:28:37;11.30;91.80
4354;DHT22;11018;51.258;6.806;2023-10-31T06:31:03;11.30;91.80
4354;DHT22;11018;51.258;6.806;2023-10-31T06:33:30;11.40;91.80
4354;DHT22;11018;51.258;6.806;2023-10-31T06:35:55;11.40;89.90
4354;DHT22;11018;51.258;6.806;2023-10-31T06:38:21;11.40;91.40
4354;DHT22;11018;51.258;6.806;2023-10-31T06:40:46;11.50;89.00
4354;DHT22;11018;51.258;6.806;2023-10-31T06:43:12;11.40;90.40
4354;DHT22;11018;51.258;6.806;2023-10-31T06:45:38;11.50;88.70
4354;DHT22;11018;51.258;6.806;2023-10-31T06:48:03;11.50;89.90
4354;DHT22;11018;51.258;6.806;2023-10-31T06:50:29;11.40;90.40
4354;DHT22;11018;51.258;6.806;2023-10-31T06:52:55;11.40;91.60
4354;DHT22;11018;51.258;6.806;2023-10-31T06:55:20;11.40;92.90
4354;DHT22;11018;51.258;6.806;2023-10-31T06:57:46;11.40;92.40
4354;DHT22;11018;51.258;6.806;2023-10-31T07:00:12;11.40;93.50
4354;DHT22;11018;51.258;6.806;2023-10-31T07:02:37;11.40;94.60
4354;DHT22;11018;51.258;6.806;2023-10-31T07:05:03;11.50;93.90
4354;DHT22;11018;51.258;6.806;2023-10-31T07:07:29;11.50;91.70
4354;DHT22;11018;51.258;6.806;2023-10-31T07:09:55;11.50;92.20
4354;DHT22;11018;51.258;6.806;2023-10-31T07:12:20;11.50;91.30
4354;DHT22;11018;51.258;6.806;2023-10-31T07:14:47;11.50;88.70
4354;DHT22;11018;51.258;6.806;2023-10-31T07:17:13;11.60;91.20
4354;DHT22;11018;51.258;6.806;2023-10-31T07:19:38;11.60;89.30
4354;DHT22;11018;51.258;6.806;2023-10-31T07:22:04;11.70;86.00
4354;DHT22;11018;51.258;6.806;2023-10-31T07:24:29;11.80;82.90
4354;DHT22;11018;51.258;6.806;2023-10-31T07:26:55;11.80;81.70
4354;DHT22;11018;51.258;6.806;2023-10-31T07:29:20;11.80;79.00
4354;DHT22;11018;51.258;6.806;2023-10-31T07:31:46;11.80;79.30
4354;DHT22;11018;51.258;6.806;2023-10-31T07:34:11;11.80;78.00
4354;DHT22;11018;51.258;6.806;2023-10-31T07:36:37;11.80;79.30
4354;DHT22;11018;51.258;6.806;2023-10-31T07:39:04;11.80;78.00
4354;DHT22;11018;51.258;6.806;2023-10-31T07:41:30;11.90;77.50
4354;DHT22;11018;51.258;6.806;2023-10-31T07:43:56;11.90;78.90
4354;DHT22;11018;51.258;6.806;2023-10-31T07:46:21;12.00;77.70
4354;DHT22;11018;51.258;6.806;2023-10-31T07:48:48;11.90;77.00
4354;DHT22;11018;51.258;6.806;2023-10-31T07:51:14;11.90;78.20
4354;DHT22;11018;51.258;6.806;2023-10-31T07:53:41;11.90;76.60
4354;DHT22;11018;51.258;6.806;2023-10-31T07:56:15;11.90;76.20
4354;DHT22;11018;51.258;6.806;2023-10-31T07:58:41;11.90;77.40
4354;DHT22;11018;51.258;6.806;2023-10-31T08:01:06;11.90;74.90
4354;DHT22;11018;51.258;6.806;2023-10-31T08:03:36;12.00;73.50
4354;DHT22;11018;51.258;6.806;2023-10-31T08:06:02;11.90;73.40
4354;DHT22;11018;51.258;6.806;2023-10-31T08:08:27;12.00;73.10
4354;DHT22;11018;51.258;6.806;2023-10-31T08:10:53;12.00;71.30
4354;DHT22;11018;51.258;6.806;2023-10-31T08:13:18;12.00;72.60
4354;DHT22;11018;51.258;6.806;2023-10-31T08:15:44;12.00;69.10
4354;DHT22;11018;51.258;6.806;2023-10-31T08:18:09;12.10;68.10
4354;DHT22;11018;51.258;6.806;2023-10-31T08:20:35;12.20;69.50
4354;DHT22;11018;51.258;6.806;2023-10-31T08:23:01;12.20;67.50
4354;DHT22;11018;51.258;6.806;2023-10-31T08:25:27;12.20;67.90
4354;DHT22;11018;51.258;6.806;2023-10-31T08:27:52;12.30;67.10
4354;DHT22;11018;51.258;6.806;2023-10-31T08:30:18;12.40;65.70
4354;DHT22;11018;51.258;6.806;2023-10-31T08:32:45;12.40;62.90
4354;DHT22;11018;51.258;6.806;2023-10-31T08:35:11;12.40;63.50
4354;DHT22;11018;51.258;6.806;2023-10-31T08:37:36;12.40;61.30
4354;DHT22;11018;51.258;6.806;2023-10-31T08:40:02;12.40;63.10
4354;DHT22;11018;51.258;6.806;2023-10-31T08:42:30;12.30;62.10
4354;DHT22;11018;51.258;6.806;2023-10-31T08:44:55;12.40;62.30
4354;DHT22;11018;51.258;6.806;2023-10-31T08:47:21;12.50;63.70
4354;DHT22;11018;51.258;6.806;2023-10-31T08:49:46;12.60;62.20
4354;DHT22;11018;51.258;6.806;2023-10-31T08:52:12;12.70;60.90
4354;DHT22;11018;51.258;6.806;2023-10-31T08:54:38;12.80;60.50
4354;DHT22;11018;51.258;6.806;2023-10-31T08:57:03;12.90;57.80
4354;DHT22;11018;51.258;6.806;2023-10-31T08:59:29;12.90;58.80
4354;DHT22;11018;51.258;6.806;2023-10-31T09:01:54;12.90;59.90
4354;DHT22;11018;51.258;6.806;2023-10-31T09:04:20;12.90;58.30
4354;DHT22;11018;51.258;6.806;2023-10-31T09:06:45;12.90;58.10
4354;DHT22;11018;51.258;6.806;2023-10-31T09:09:11;13.00;57.50
4354;DHT22;11018;51.258;6.806;2023-10-31T09:11:38;13.00;56.50
4354;DHT22;11018;51.258;6.806;2023-10-31T09:14:03;13.10;55.30
4354;DHT22;11018;51.258;6.806;2023-10-31T09:16:29;13.20;54.20
4354;DHT22;11018;51.258;6.806;2023-10-31T09:18:55;13.20;54.20
4354;DHT22;11018;51.258;6.806;2023-10-31T09:21:20;13.10;56.00
4354;DHT22;11018;51.258;6.806;2023-10-31T09:23:46;13.00;57.00
4354;DHT22;11018;51.258;6.806;2023-10-31T09:26:11;13.10;56.00
4354;DHT22;11018;51.258;6.806;2023-10-31T09:28:37;13.20;54.60
4354;DHT22;11018;51.258;6.806;2023-10-31T09:31:04;13.40;55.00
4354;DHT22;11018;51.258;6.806;2023-10-31T09:33:30;13.50;54.50
4354;DHT22;11018;51.258;6.806;2023-10-31T09:35:55;13.80;52.20
4354;DHT22;11018;51.258;6.806;2023-10-31T09:38:21;13.80;52.20
4354;DHT22;11018;51.258;6.806;2023-10-31T09:40:46;13.70;52.40
4354;DHT22;11018;51.258;6.806;2023-10-31T09:43:12;13.70;53.10
4354;DHT22;11018;51.258;6.806;2023-10-31T09:45:38;13.70;52.10
4354;DHT22;11018;51.258;6.806;2023-10-31T09:48:03;13.80;51.20
4354;DHT22;11018;51.258;6.806;2023-10-31T09:50:30;13.70;51.40
4354;DHT22;11018;51.258;6.806;2023-10-31T09:52:56;13.70;49.70
4354;DHT22;11018;51.258;6.806;2023-10-31T09:55:22;13.60;51.20
4354;DHT22;11018;51.258;6.806;2023-10-31T09:57:48;13.60;51.20
4354;DHT22;11018;51.258;6.806;2023-10-31T10:00:13;13.70;52.30
4354;DHT22;11018;51.258;6.806;2023-10-31T10:02:40;13.70;51.10
4354;DHT22;11018;51.258;6.806;2023-10-31T10:05:05;13.90;50.90
4354;DHT22;11018;51.258;6.806;2023-10-31T10:07:33;14.10;50.70
4354;DHT22;11018;51.258;6.806;2023-10-31T10:10:01;14.10;47.90
4354;DHT22;11018;51.258;6.806;2023-10-31T10:12:26;14.10;47.60
4354;DHT22;11018;51.258;6.806;2023-10-31T10:14:52;13.90;48.70
4354;DHT22;11018;51.258;6.806;2023-10-31T10:17:21;13.80;47.70
4354;DHT22;11018;51.258;6.806;2023-10-31T10:19:47;13.80;48.40
4354;DHT22;11018;51.258;6.806;2023-10-31T10:22:13;13.70;48.10
4354;DHT22;11018;51.258;6.806;2023-10-31T10:24:40;13.70;49.30
4354;DHT22;11018;51.258;6.806;2023-10-31T10:27:09;13.90;49.20
4354;DHT22;11018;51.258;6.806;2023-10-31T10:29:35;14.00;48.00
4354;DHT22;11018;51.258;6.806;2023-10-31T10:32:04;14.00;46.30
4354;DHT22;11018;51.258;6.806;2023-10-31T10:34:31;14.10;45.30
4354;DHT22;11018;51.258;6.806;2023-10-31T10:36:57;14.40;45.80
4354;DHT22;11018;51.258;6.806;2023-10-31T10:39:23;14.60;44.40
4354;DHT22;11018;51.258;6.806;2023-10-31T10:41:53;14.80;42.90
4354;DHT22;11018;51.258;6.806;2023-10-31T10:44:35;15.00;41.30
4354;DHT22;11018;51.258;6.806;2023-10-31T10:47:05;15.00;41.80
4354;DHT22;11018;51.258;6.806;2023-10-31T10:49:36;15.00;40.30
4354;DHT22;11018;51.258;6.806;2023-10-31T10:54:40;14.90;40.10
4354;DHT22;11018;51.258;6.806;2023-10-31T10:57:36;14.90;41.30
4354;DHT22;11018;51.258;6.806;2023-10-31T11:00:06;14.90;40.70
4354;DHT22;11018;51.258;6.806;2023-10-31T11:02:39;14.70;39.80
4354;DHT22;11018;51.258;6.806;2023-10-31T11:05:06;14.60;42.10
4354;DHT22;11018;51.258;6.806;2023-10-31T11:07:34;14.50;42.90
4354;DHT22;11018;51.258;6.806;2023-10-31T11:10:00;14.50;40.60
4354;DHT22;11018;51.258;6.806;2023-10-31T11:12:29;14.60;42.20
4354;DHT22;11018;51.258;6.806;2023-10-31T11:14:57;14.60;39.70
4354;DHT22;11018;51.258;6.806;2023-10-31T11:17:31;14.60;39.60
4354;DHT22;11018;51.258;6.806;2023-10-31T11:20:00;14.50;40.20
4354;DHT22;11018;51.258;6.806;2023-10-31T11:22:25;14.70;40.60
4354;DHT22;11018;51.258;6.806;2023-10-31T11:25:01;14.80;40.00
4354;DHT22;11018;51.258;6.806;2023-10-31T11:27:27;15.00;39.50
4354;DHT22;11018;51.258;6.806;2023-10-31T11:29:54;15.20;37.50
4354;DHT22;11018;51.258;6.806;2023-10-31T11:32:22;15.40;37.60
4354;DHT22;11018;51.258;6.806;2023-10-31T11:34:47;15.40;36.00
4354;DHT22;11018;51.258;6.806;2023-10-31T11:40:21;14.90;36.60
4354;DHT22;11018;51.258;6.806;2023-10-31T11:42:52;14.90;37.00
4354;DHT22;11018;51.258;6.806;2023-10-31T11:48:01;14.70;38.70
4354;DHT22;11018;51.258;6.806;2023-10-31T11:50:26;14.60;38.90
4354;DHT22;11018;51.258;6.806;2023-10-31T11:53:18;14.50;39.30
4354;DHT22;11018;51.258;6.806;2023-10-31T11:55:47;14.50;40.10
4354;DHT22;11018;51.258;6.806;2023-10-31T11:58:23;14.50;39.40
4354;DHT22;11018;51.258;6.806;2023-10-31T12:00:50;14.40;40.40
4354;DHT22;11018;51.258;6.806;2023-10-31T12:03:17;14.40;40.80
4354;DHT22;11018;51.258;6.806;2023-10-31T12:05:53;14.60;38.90
4354;DHT22;11018;51.258;6.806;2023-10-31T12:10:52;14.70;39.00
4354;DHT22;11018;51.258;6.806;2023-10-31T12:13:17;14.60;39.40
4354;DHT22;11018;51.258;6.806;2023-10-31T12:15:52;14.70;39.10
4354;DHT22;11018;51.258;6.806;2023-10-31T12:18:18;14.60;39.10
4354;DHT22;11018;51.258;6.806;2023-10-31T12:20:50;14.60;39.50
4354;DHT22;11018;51.258;6.806;2023-10-31T12:23:17;14.50;38.40
4354;DHT22;11018;51.258;6.806;2023-10-31T12:25:50;14.40;38.30
4354;DHT22;11018;51.258;6.806;2023-10-31T12:28:17;14.50;38.90
4354;DHT22;11018;51.258;6.806;2023-10-31T12:30:47;14.50;38.90
4354;DHT22;11018;51.258;6.806;2023-10-31T12:33:13;14.50;39.10
4354;DHT22;11018;51.258;6.806;2023-10-31T12:35:39;14.50;40.70
4354;DHT22;11018;51.258;6.806;2023-10-31T12:38:05;14.60;39.10
4354;DHT22;11018;51.258;6.806;2023-10-31T12:40:31;14.60;38.60
4354;DHT22;11018;51.258;6.806;2023-10-31T12:42:57;14.60;38.60
4354;DHT22;11018;51.258;6.806;2023-10-31T12:45:24;14.50;39.10
4354;DHT22;11018;51.258;6.806;2023-10-31T12:48:10;14.60;39.40
4354;DHT22;11018;51.258;6.806;2023-10-31T12:50:37;14.70;39.00
4354;DHT22;11018;51.258;6.806;2023-10-31T12:53:04;14.80;38.10
4354;DHT22;11018;51.258;6.806;2023-10-31T12:55:36;14.80;38.20
4354;DHT22;11018;51.258;6.806;2023-10-31T12:58:04;14.90;38.00
4354;DHT22;11018;51.258;6.806;2023-10-31T13:00:34;14.90;38.00
4354;DHT22;11018;51.258;6.806;2023-10-31T13:03:02;15.10;38.10
4354;DHT22;11018;51.258;6.806;2023-10-31T13:05:28;15.10;36.70
4354;DHT22;11018;51.258;6.806;2023-10-31T13:07:55;15.10;37.90
4354;DHT22;11018;51.258;6.806;2023-10-31T13:10:24;15.10;37.90
4354;DHT22;11018;51.258;6.806;2023-10-31T13:12:50;15.10;37.90
4354;DHT22;11018;51.258;6.806;2023-10-31T13:15:17;15.10;37.50
4354;DHT22;11018;51.258;6.806;2023-10-31T13:17:46;15.00;37.50
4354;DHT22;11018;51.258;6.806;2023-10-31T13:20:13;15.00;38.10
4354;DHT22;11018;51.258;6.806;2023-10-31T13:22:40;15.00;38.50
4354;DHT22;11018;51.258;6.806;2023-10-31T13:25:07;15.00;38.50
4354;DHT22;11018;51.258;6.806;2023-10-31T13:27:35;15.00;38.40
4354;DHT22;11018;51.258;6.806;2023-10-31T13:30:02;15.00;38.10
4354;DHT22;11018;51.258;6.806;2023-10-31T13:32:27;15.00;40.60
4354;DHT22;11018;51.258;6.806;2023-10-31T13:34:53;15.10;37.50
4354;DHT22;11018;51.258;6.806;2023-10-31T13:37:18;15.30;37.70
4354;DHT22;11018;51.258;6.806;2023-10-31T13:39:44;15.50;37.10
4354;DHT22;11018;51.258;6.806;2023-10-31T13:42:10;15.60;35.10
4354;DHT22;11018;51.258;6.806;2023-10-31T13:44:36;15.70;34.70
4354;DHT22;11018;51.258;6.806;2023-10-31T13:47:02;15.60;34.20
4354;DHT22;11018;51.258;6.806;2023-10-31T13:49:28;15.80;34.60
4354;DHT22;11018;51.258;6.806;2023-10-31T13:51:54;16.10;33.30
4354;DHT22;11018;51.258;6.806;2023-10-31T13:54:19;16.30;32.20
4354;DHT22;11018;51.258;6.806;2023-10-31T13:56:46;16.70;31.50
4354;DHT22;11018;51.258;6.806;2023-10-31T13:59:12;17.00;29.50
4354;DHT22;11018;51.258;6.806;2023-10-31T14:01:38;17.20;29.50
4354;DHT22;11018;51.258;6.806;2023-10-31T14:04:03;16.90;28.90
4354;DHT22;11018;51.258;6.806;2023-10-31T14:06:29;16.50;30.30
4354;DHT22;11018;51.258;6.806;2023-10-31T14:08:56;16.50;31.00
4354;DHT22;11018;51.258;6.806;2023-10-31T14:11:21;16.40;31.10
4354;DHT22;11018;51.258;6.806;2023-10-31T14:13:47;16.20;31.60
4354;DHT22;11018;51.258;6.806;2023-10-31T14:16:13;16.20;32.20
4354;DHT22;11018;51.258;6.806;2023-10-31T14:18:39;16.40;31.60
4354;DHT22;11018;51.258;6.806;2023-10-31T14:21:06;16.50;30.90
4354;DHT22;11018;51.258;6.806;2023-10-31T14:23:31;16.70;29.90
4354;DHT22;11018;51.258;6.806;2023-10-31T14:25:57;16.70;30.30
4354;DHT22;11018;51.258;6.806;2023-10-31T14:28:22;16.70;29.80
4354;DHT22;11018;51.258;6.806;2023-10-31T14:30:49;16.70;29.70
4354;DHT22;11018;51.258;6.806;2023-10-31T14:33:15;16.60;30.00
4354;DHT22;11018;51.258;6.806;2023-10-31T14:35:40;16.50;30.90
4354;DHT22;11018;51.258;6.806;2023-10-31T14:38:06;16.30;31.40
4354;DHT22;11018;51.258;6.806;2023-10-31T14:40:31;16.00;32.30
4354;DHT22;11018;51.258;6.806;2023-10-31T14:42:57;15.60;33.60
4354;DHT22;11018;51.258;6.806;2023-10-31T14:45:22;15.50;34.40
4354;DHT22;11018;51.258;6.806;2023-10-31T14:47:48;15.30;35.40
4354;DHT22;11018;51.258;6.806;2023-10-31T14:50:13;15.10;36.00
4354;DHT22;11018;51.258;6.806;2023-10-31T14:52:39;15.10;36.10
4354;DHT22;11018;51.258;6.806;2023-10-31T14:55:06;15.10;36.20
4354;DHT22;11018;51.258;6.806;2023-10-31T14:57:32;15.00;36.30
4354;DHT22;11018;51.258;6.806;2023-10-31T14:59:57;14.80;36.90
4354;DHT22;11018;51.258;6.806;2023-10-31T15:02:23;14.90;37.60
4354;DHT22;11018;51.258;6.806;2023-10-31T15:04:48;15.10;35.60
4354;DHT22;11018;51.258;6.806;2023-10-31T15:07:14;15.40;35.50
4354;DHT22;11018;51.258;6.806;2023-10-31T15:09:40;15.40;34.80
4354;DHT22;11018;51.258;6.806;2023-10-31T15:12:07;15.50;34.60
4354;DHT22;11018;51.258;6.806;2023-10-31T15:14:33;15.50;34.70
4354;DHT22;11018;51.258;6.806;2023-10-31T15:16:58;15.40;34.70
4354;DHT22;11018;51.258;6.806;2023-10-31T15:19:24;15.10;35.70
4354;DHT22;11018;51.258;6.806;2023-10-31T15:21:49;14.90;35.60
4354;DHT22;11018;51.258;6.806;2023-10-31T15:24:15;14.70;36.20
4354;DHT22;11018;51.258;6.806;2023-10-31T15:26:41;14.60;37.10
4354;DHT22;11018;51.258;6.806;2023-10-31T15:29:06;14.40;38.00
4354;DHT22;11018;51.258;6.806;2023-10-31T15:31:32;14.30;38.80
4354;DHT22;11018;51.258;6.806;2023-10-31T15:33:58;14.20;39.20
4354;DHT22;11018;51.258;6.806;2023-10-31T15:36:23;14.30;39.60
4354;DHT22;11018;51.258;6.806;2023-10-31T15:38:51;14.30;39.60
4354;DHT22;11018;51.258;6.806;2023-10-31T15:41:16;14.30;39.90
4354;DHT22;11018;51.258;6.806;2023-10-31T15:43:42;14.30;40.40
4354;DHT22;11018;51.258;6.806;2023-10-31T15:46:07;14.30;40.90
4354;DHT22;11018;51.258;6.806;2023-10-31T15:48:33;14.20;41.50
4354;DHT22;11018;51.258;6.806;2023-10-31T15:50:59;14.20;42.20